sensor_id;sensor_type;location;lat;lon;timestamp;P1;durP1;ratioP1;P2;durP2;ratioP2
7255;SDS011;3669;49.200;9.242;2023-05-16T00:01:06;5.80;;;5.30;;
7255;SDS011;3669;49.200;9.242;2023-05-16T00:03:34;6.03;;;5.43;;
7255;SDS011;3669;49.200;9.242;2023-05-16T00:06:03;5.30;;;4.80;;
7255;SDS011;3669;49.200;9.242;2023-05-16T00:08:30;5.72;;;5.20;;
7255;SDS011;3669;49.200;9.242;2023-05-16T00:10:57;5.30;;;4.90;;
7255;SDS011;3669;49.200;9.242;2023-05-16T00:13:24;6.00;;;5.50;;
7255;SDS011;3669;49.200;9.242;2023-05-16T00:15:51;5.38;;;4.88;;
7255;SDS011;3669;49.200;9.242;2023-05-16T00:18:19;5.30;;;4.90;;
7255;SDS011;3669;49.200;9.242;2023-05-16T00:20:52;5.78;;;5.32;;
7255;SDS011;3669;49.200;9.242;2023-05-16T00:23:20;5.30;;;4.90;;
7255;SDS011;3669;49.200;9.242;2023-05-16T00:25:47;6.13;;;5.55;;
7255;SDS011;3669;49.200;9.242;2023-05-16T00:28:15;6.10;;;5.50;;
7255;SDS011;3669;49.200;9.242;2023-05-16T00:31:37;31.25;;;29.65;;
7255;SDS011;3669;49.200;9.242;2023-05-16T00:34:04;19.25;;;18.15;;
7255;SDS011;3669;49.200;9.242;2023-05-16T00:36:31;11.15;;;10.43;;
7255;SDS011;3669;49.200;9.242;2023-05-16T00:39:00;7.22;;;6.70;;
7255;SDS011;3669;49.200;9.242;2023-05-16T00:41:27;6.63;;;6.00;;
7255;SDS011;3669;49.200;9.242;2023-05-16T00:43:54;5.97;;;5.38;;
7255;SDS011;3669;49.200;9.242;2023-05-16T00:46:21;5.85;;;5.35;;
7255;SDS011;3669;49.200;9.242;2023-05-16T00:48:48;5.78;;;5.32;;
7255;SDS011;3669;49.200;9.242;2023-05-16T00:51:16;5.93;;;5.40;;
7255;SDS011;3669;49.200;9.242;2023-05-16T00:53:43;6.45;;;5.90;;
7255;SDS011;3669;49.200;9.242;2023-05-16T00:56:10;5.93;;;5.50;;
7255;SDS011;3669;49.200;9.242;2023-05-16T00:58:37;5.63;;;5.13;;
7255;SDS011;3669;49.200;9.242;2023-05-16T01:01:04;5.80;;;5.30;;
7255;SDS011;3669;49.200;9.242;2023-05-16T01:03:32;5.78;;;5.35;;
7255;SDS011;3669;49.200;9.242;2023-05-16T01:06:00;5.80;;;5.30;;
7255;SDS011;3669;49.200;9.242;2023-05-16T01:08:27;6.43;;;5.93;;
7255;SDS011;3669;49.200;9.242;2023-05-16T01:11:13;6.68;;;6.07;;
7255;SDS011;3669;49.200;9.242;2023-05-16T01:13:56;6.43;;;5.93;;
7255;SDS011;3669;49.200;9.242;2023-05-16T01:16:30;6.43;;;5.82;;
7255;SDS011;3669;49.200;9.242;2023-05-16T01:19:13;6.53;;;5.88;;
7255;SDS011;3669;49.200;9.242;2023-05-16T01:22:05;6.18;;;5.68;;
7255;SDS011;3669;49.200;9.242;2023-05-16T01:27:08;6.53;;;5.93;;
7255;SDS011;3669;49.200;9.242;2023-05-16T01:29:36;6.20;;;5.70;;
7255;SDS011;3669;49.200;9.242;2023-05-16T01:32:03;6.60;;;6.00;;
7255;SDS011;3669;49.200;9.242;2023-05-16T01:34:30;6.78;;;6.15;;
7255;SDS011;3669;49.200;9.242;2023-05-16T01:37:06;6.18;;;5.68;;
7255;SDS011;3669;49.200;9.242;2023-05-16T01:39:43;6.53;;;5.93;;
7255;SDS011;3669;49.200;9.242;2023-05-16T01:42:15;6.28;;;5.78;;
7255;SDS011;3669;49.200;9.242;2023-05-16T01:44:53;6.32;;;5.82;;
7255;SDS011;3669;49.200;9.242;2023-05-16T01:47:23;6.20;;;5.60;;
7255;SDS011;3669;49.200;9.242;2023-05-16T01:52:39;6.20;;;5.70;;
7255;SDS011;3669;49.200;9.242;2023-05-16T01:55:09;6.35;;;5.85;;
7255;SDS011;3669;49.200;9.242;2023-05-16T01:57:37;6.43;;;5.90;;
7255;SDS011;3669;49.200;9.242;2023-05-16T02:00:06;6.63;;;6.05;;
7255;SDS011;3669;49.200;9.242;2023-05-16T02:02:34;7.00;;;6.40;;
7255;SDS011;3669;49.200;9.242;2023-05-16T02:05:01;6.90;;;6.30;;
7255;SDS011;3669;49.200;9.242;2023-05-16T02:07:28;5.55;;;5.15;;
7255;SDS011;3669;49.200;9.242;2023-05-16T02:09:55;6.78;;;6.20;;
7255;SDS011;3669;49.200;9.242;2023-05-16T02:12:23;6.25;;;5.75;;
7255;SDS011;3669;49.200;9.242;2023-05-16T02:14:50;6.63;;;6.13;;
7255;SDS011;3669;49.200;9.242;2023-05-16T02:17:17;7.40;;;6.80;;
7255;SDS011;3669;49.200;9.242;2023-05-16T02:19:45;6.72;;;6.22;;
7255;SDS011;3669;49.200;9.242;2023-05-16T02:22:12;6.75;;;6.15;;
7255;SDS011;3669;49.200;9.242;2023-05-16T02:24:39;6.68;;;6.18;;
7255;SDS011;3669;49.200;9.242;2023-05-16T02:27:06;6.68;;;6.07;;
7255;SDS011;3669;49.200;9.242;2023-05-16T02:29:33;6.45;;;5.95;;
7255;SDS011;3669;49.200;9.242;2023-05-16T02:32:00;6.78;;;6.28;;
7255;SDS011;3669;49.200;9.242;2023-05-16T02:34:27;6.18;;;5.68;;
7255;SDS011;3669;49.200;9.242;2023-05-16T02:36:54;6.68;;;6.07;;
7255;SDS011;3669;49.200;9.242;2023-05-16T02:39:21;6.68;;;6.07;;
7255;SDS011;3669;49.200;9.242;2023-05-16T02:41:48;6.07;;;5.57;;
7255;SDS011;3669;49.200;9.242;2023-05-16T02:44:15;6.90;;;6.20;;
7255;SDS011;3669;49.200;9.242;2023-05-16T02:46:42;6.40;;;5.85;;
7255;SDS011;3669;49.200;9.242;2023-05-16T02:49:09;6.90;;;6.30;;
7255;SDS011;3669;49.200;9.242;2023-05-16T02:51:36;6.88;;;6.32;;
7255;SDS011;3669;49.200;9.242;2023-05-16T02:54:03;6.13;;;5.53;;
7255;SDS011;3669;49.200;9.242;2023-05-16T02:56:32;7.10;;;6.50;;
7255;SDS011;3669;49.200;9.242;2023-05-16T02:58:59;7.18;;;6.57;;
7255;SDS011;3669;49.200;9.242;2023-05-16T03:01:26;7.45;;;6.85;;
7255;SDS011;3669;49.200;9.242;2023-05-16T03:03:53;7.90;;;7.10;;
7255;SDS011;3669;49.200;9.242;2023-05-16T03:06:20;11.90;;;11.07;;
7255;SDS011;3669;49.200;9.242;2023-05-16T03:08:47;17.77;;;16.75;;
7255;SDS011;3669;49.200;9.242;2023-05-16T03:11:15;20.48;;;19.42;;
7255;SDS011;3669;49.200;9.242;2023-05-16T03:13:43;31.20;;;29.52;;
7255;SDS011;3669;49.200;9.242;2023-05-16T03:16:11;26.73;;;25.23;;
7255;SDS011;3669;49.200;9.242;2023-05-16T03:18:37;18.67;;;17.55;;
7255;SDS011;3669;49.200;9.242;2023-05-16T03:21:04;29.80;;;28.17;;
7255;SDS011;3669;49.200;9.242;2023-05-16T03:23:31;12.48;;;11.63;;
7255;SDS011;3669;49.200;9.242;2023-05-16T03:25:58;8.05;;;7.43;;
7255;SDS011;3669;49.200;9.242;2023-05-16T03:28:25;7.40;;;6.75;;
7255;SDS011;3669;49.200;9.242;2023-05-16T03:30:52;6.72;;;6.22;;
7255;SDS011;3669;49.200;9.242;2023-05-16T03:33:19;7.47;;;6.78;;
7255;SDS011;3669;49.200;9.242;2023-05-16T03:35:46;6.70;;;6.20;;
7255;SDS011;3669;49.200;9.242;2023-05-16T03:38:13;6.97;;;6.32;;
7255;SDS011;3669;49.200;9.242;2023-05-16T03:40:40;6.65;;;6.15;;
7255;SDS011;3669;49.200;9.242;2023-05-16T03:43:08;7.25;;;6.65;;
7255;SDS011;3669;49.200;9.242;2023-05-16T03:45:35;7.32;;;6.72;;
7255;SDS011;3669;49.200;9.242;2023-05-16T03:48:02;7.22;;;6.55;;
7255;SDS011;3669;49.200;9.242;2023-05-16T03:50:30;7.53;;;6.82;;
7255;SDS011;3669;49.200;9.242;2023-05-16T03:52:57;6.82;;;6.22;;
7255;SDS011;3669;49.200;9.242;2023-05-16T03:55:24;7.13;;;6.50;;
7255;SDS011;3669;49.200;9.242;2023-05-16T03:57:51;7.07;;;6.53;;
7255;SDS011;3669;49.200;9.242;2023-05-16T04:00:18;7.47;;;6.88;;
7255;SDS011;3669;49.200;9.242;2023-05-16T04:02:45;6.93;;;6.38;;
7255;SDS011;3669;49.200;9.242;2023-05-16T04:05:12;6.90;;;6.40;;
7255;SDS011;3669;49.200;9.242;2023-05-16T04:07:39;6.70;;;6.10;;
7255;SDS011;3669;49.200;9.242;2023-05-16T04:10:07;6.63;;;6.13;;
7255;SDS011;3669;49.200;9.242;2023-05-16T04:12:34;6.82;;;6.22;;
7255;SDS011;3669;49.200;9.242;2023-05-16T04:15:02;7.03;;;6.35;;
7255;SDS011;3669;49.200;9.242;2023-05-16T04:17:31;6.97;;;6.28;;
7255;SDS011;3669;49.200;9.242;2023-05-16T04:19:59;7.18;;;6.57;;
7255;SDS011;3669;49.200;9.242;2023-05-16T04:22:26;7.57;;;6.97;;
7255;SDS011;3669;49.200;9.242;2023-05-16T04:24:53;7.53;;;6.75;;
7255;SDS011;3669;49.200;9.242;2023-05-16T04:27:20;7.32;;;6.72;;
7255;SDS011;3669;49.200;9.242;2023-05-16T04:29:48;7.78;;;7.15;;
7255;SDS011;3669;49.200;9.242;2023-05-16T04:32:15;7.80;;;7.03;;
7255;SDS011;3669;49.200;9.242;2023-05-16T04:34:42;7.65;;;6.95;;
7255;SDS011;3669;49.200;9.242;2023-05-16T04:37:11;6.63;;;6.13;;
7255;SDS011;3669;49.200;9.242;2023-05-16T04:39:38;7.25;;;6.65;;
7255;SDS011;3669;49.200;9.242;2023-05-16T04:42:05;6.63;;;6.13;;
7255;SDS011;3669;49.200;9.242;2023-05-16T04:44:33;7.47;;;6.85;;
7255;SDS011;3669;49.200;9.242;2023-05-16T04:47:00;7.20;;;6.60;;
7255;SDS011;3669;49.200;9.242;2023-05-16T04:49:27;6.85;;;6.05;;
7255;SDS011;3669;49.200;9.242;2023-05-16T04:51:54;6.80;;;6.20;;
7255;SDS011;3669;49.200;9.242;2023-05-16T04:54:21;6.72;;;6.10;;
7255;SDS011;3669;49.200;9.242;2023-05-16T04:56:48;7.22;;;6.60;;
7255;SDS011;3669;49.200;9.242;2023-05-16T04:59:15;9.15;;;7.20;;
7255;SDS011;3669;49.200;9.242;2023-05-16T05:01:42;7.45;;;6.85;;
7255;SDS011;3669;49.200;9.242;2023-05-16T05:04:09;7.03;;;6.30;;
7255;SDS011;3669;49.200;9.242;2023-05-16T05:06:37;7.30;;;6.60;;
7255;SDS011;3669;49.200;9.242;2023-05-16T05:09:04;7.70;;;6.90;;
7255;SDS011;3669;49.200;9.242;2023-05-16T05:11:31;7.47;;;6.78;;
7255;SDS011;3669;49.200;9.242;2023-05-16T05:13:58;6.95;;;6.35;;
7255;SDS011;3669;49.200;9.242;2023-05-16T05:16:25;7.65;;;6.95;;
7255;SDS011;3669;49.200;9.242;2023-05-16T05:18:52;7.60;;;7.00;;
7255;SDS011;3669;49.200;9.242;2023-05-16T05:21:19;8.55;;;7.85;;
7255;SDS011;3669;49.200;9.242;2023-05-16T05:23:46;17.02;;;15.88;;
7255;SDS011;3669;49.200;9.242;2023-05-16T05:26:14;14.15;;;13.15;;
7255;SDS011;3669;49.200;9.242;2023-05-16T05:28:41;31.30;;;29.50;;
7255;SDS011;3669;49.200;9.242;2023-05-16T05:31:08;29.80;;;28.10;;
7255;SDS011;3669;49.200;9.242;2023-05-16T05:33:35;32.90;;;31.10;;
7255;SDS011;3669;49.200;9.242;2023-05-16T05:36:02;14.95;;;13.90;;
7255;SDS011;3669;49.200;9.242;2023-05-16T05:38:28;9.93;;;9.13;;
7255;SDS011;3669;49.200;9.242;2023-05-16T05:40:55;7.90;;;7.20;;
7255;SDS011;3669;49.200;9.242;2023-05-16T05:43:22;8.75;;;8.02;;
7255;SDS011;3669;49.200;9.242;2023-05-16T05:45:49;7.75;;;7.05;;
7255;SDS011;3669;49.200;9.242;2023-05-16T05:48:16;9.00;;;8.20;;
7255;SDS011;3669;49.200;9.242;2023-05-16T05:50:44;9.85;;;8.20;;
7255;SDS011;3669;49.200;9.242;2023-05-16T05:53:11;8.85;;;8.02;;
7255;SDS011;3669;49.200;9.242;2023-05-16T05:55:38;8.98;;;8.27;;
7255;SDS011;3669;49.200;9.242;2023-05-16T05:58:07;8.25;;;7.55;;
7255;SDS011;3669;49.200;9.242;2023-05-16T06:00:34;8.70;;;7.80;;
7255;SDS011;3669;49.200;9.242;2023-05-16T06:03:01;7.88;;;7.18;;
7255;SDS011;3669;49.200;9.242;2023-05-16T06:05:28;9.27;;;8.38;;
7255;SDS011;3669;49.200;9.242;2023-05-16T06:07:55;8.55;;;7.75;;
7255;SDS011;3669;49.200;9.242;2023-05-16T06:10:22;8.80;;;7.95;;
7255;SDS011;3669;49.200;9.242;2023-05-16T06:12:49;8.43;;;7.65;;
7255;SDS011;3669;49.200;9.242;2023-05-16T06:15:16;8.60;;;7.80;;
7255;SDS011;3669;49.200;9.242;2023-05-16T06:17:43;9.13;;;8.13;;
7255;SDS011;3669;49.200;9.242;2023-05-16T06:20:10;8.25;;;7.55;;
7255;SDS011;3669;49.200;9.242;2023-05-16T06:22:37;8.10;;;7.40;;
7255;SDS011;3669;49.200;9.242;2023-05-16T06:25:04;8.40;;;7.60;;
7255;SDS011;3669;49.200;9.242;2023-05-16T06:27:32;8.10;;;7.50;;
7255;SDS011;3669;49.200;9.242;2023-05-16T06:29:59;8.35;;;7.47;;
7255;SDS011;3669;49.200;9.242;2023-05-16T06:32:26;8.02;;;7.32;;
7255;SDS011;3669;49.200;9.242;2023-05-16T06:34:53;9.02;;;7.32;;
7255;SDS011;3669;49.200;9.242;2023-05-16T06:37:20;7.72;;;7.03;;
7255;SDS011;3669;49.200;9.242;2023-05-16T06:39:48;7.90;;;7.18;;
7255;SDS011;3669;49.200;9.242;2023-05-16T06:42:15;8.38;;;7.55;;
7255;SDS011;3669;49.200;9.242;2023-05-16T06:44:42;7.97;;;7.18;;
7255;SDS011;3669;49.200;9.242;2023-05-16T06:47:09;7.53;;;6.88;;
7255;SDS011;3669;49.200;9.242;2023-05-16T06:49:36;7.38;;;6.78;;
7255;SDS011;3669;49.200;9.242;2023-05-16T06:52:03;7.57;;;6.78;;
7255;SDS011;3669;49.200;9.242;2023-05-16T06:54:30;7.10;;;6.50;;
7255;SDS011;3669;49.200;9.242;2023-05-16T06:56:58;7.30;;;6.57;;
7255;SDS011;3669;49.200;9.242;2023-05-16T06:59:25;7.00;;;6.40;;
7255;SDS011;3669;49.200;9.242;2023-05-16T07:01:52;7.03;;;6.43;;
7255;SDS011;3669;49.200;9.242;2023-05-16T07:04:19;7.63;;;6.80;;
7255;SDS011;3669;49.200;9.242;2023-05-16T07:06:46;7.50;;;6.80;;
7255;SDS011;3669;49.200;9.242;2023-05-16T07:09:13;7.00;;;6.40;;
7255;SDS011;3669;49.200;9.242;2023-05-16T07:11:40;8.07;;;7.38;;
7255;SDS011;3669;49.200;9.242;2023-05-16T07:14:07;12.25;;;11.05;;
7255;SDS011;3669;49.200;9.242;2023-05-16T07:16:34;12.07;;;10.98;;
7255;SDS011;3669;49.200;9.242;2023-05-16T07:19:02;12.32;;;11.20;;
7255;SDS011;3669;49.200;9.242;2023-05-16T07:21:29;11.10;;;10.10;;
7255;SDS011;3669;49.200;9.242;2023-05-16T07:23:56;10.85;;;9.82;;
7255;SDS011;3669;49.200;9.242;2023-05-16T07:26:23;10.80;;;9.65;;
7255;SDS011;3669;49.200;9.242;2023-05-16T07:28:51;10.07;;;8.93;;
7255;SDS011;3669;49.200;9.242;2023-05-16T07:31:18;12.35;;;11.25;;
7255;SDS011;3669;49.200;9.242;2023-05-16T07:33:45;26.38;;;24.75;;
7255;SDS011;3669;49.200;9.242;2023-05-16T07:36:13;40.42;;;38.05;;
7255;SDS011;3669;49.200;9.242;2023-05-16T07:38:41;32.75;;;30.65;;
7255;SDS011;3669;49.200;9.242;2023-05-16T07:41:08;30.30;;;28.30;;
7255;SDS011;3669;49.200;9.242;2023-05-16T07:43:35;30.55;;;28.52;;
7255;SDS011;3669;49.200;9.242;2023-05-16T07:46:04;14.32;;;13.13;;
7255;SDS011;3669;49.200;9.242;2023-05-16T07:48:36;10.82;;;9.80;;
7255;SDS011;3669;49.200;9.242;2023-05-16T07:51:03;11.10;;;9.98;;
7255;SDS011;3669;49.200;9.242;2023-05-16T07:53:30;11.95;;;10.75;;
7255;SDS011;3669;49.200;9.242;2023-05-16T07:55:57;11.38;;;10.27;;
7255;SDS011;3669;49.200;9.242;2023-05-16T07:58:25;10.95;;;9.95;;
7255;SDS011;3669;49.200;9.242;2023-05-16T08:00:52;11.55;;;10.55;;
7255;SDS011;3669;49.200;9.242;2023-05-16T08:03:19;12.57;;;11.30;;
7255;SDS011;3669;49.200;9.242;2023-05-16T08:05:47;12.20;;;10.90;;
7255;SDS011;3669;49.200;9.242;2023-05-16T08:08:17;13.00;;;11.80;;
7255;SDS011;3669;49.200;9.242;2023-05-16T08:10:57;12.73;;;11.40;;
7255;SDS011;3669;49.200;9.242;2023-05-16T08:13:24;12.60;;;11.25;;
7255;SDS011;3669;49.200;9.242;2023-05-16T08:15:52;11.23;;;10.10;;
7255;SDS011;3669;49.200;9.242;2023-05-16T08:18:20;11.70;;;10.65;;
7255;SDS011;3669;49.200;9.242;2023-05-16T08:20:47;11.77;;;10.68;;
7255;SDS011;3669;49.200;9.242;2023-05-16T08:23:14;13.38;;;12.15;;
7255;SDS011;3669;49.200;9.242;2023-05-16T08:25:41;12.32;;;11.23;;
7255;SDS011;3669;49.200;9.242;2023-05-16T08:28:22;13.52;;;12.23;;
7255;SDS011;3669;49.200;9.242;2023-05-16T08:30:54;12.32;;;11.23;;
7255;SDS011;3669;49.200;9.242;2023-05-16T08:33:22;13.15;;;11.85;;
7255;SDS011;3669;49.200;9.242;2023-05-16T08:35:50;13.70;;;12.30;;
7255;SDS011;3669;49.200;9.242;2023-05-16T08:38:20;13.05;;;11.85;;
7255;SDS011;3669;49.200;9.242;2023-05-16T08:40:47;12.88;;;11.68;;
7255;SDS011;3669;49.200;9.242;2023-05-16T08:43:15;13.45;;;12.18;;
7255;SDS011;3669;49.200;9.242;2023-05-16T08:45:43;12.68;;;11.50;;
7255;SDS011;3669;49.200;9.242;2023-05-16T08:48:10;13.05;;;11.75;;
7255;SDS011;3669;49.200;9.242;2023-05-16T08:50:38;12.85;;;11.65;;
7255;SDS011;3669;49.200;9.242;2023-05-16T08:53:16;12.75;;;11.57;;
7255;SDS011;3669;49.200;9.242;2023-05-16T08:55:46;13.75;;;12.38;;
7255;SDS011;3669;49.200;9.242;2023-05-16T08:58:14;13.38;;;11.90;;
7255;SDS011;3669;49.200;9.242;2023-05-16T09:00:42;13.07;;;11.88;;
7255;SDS011;3669;49.200;9.242;2023-05-16T09:03:09;13.07;;;11.88;;
7255;SDS011;3669;49.200;9.242;2023-05-16T09:05:36;13.88;;;12.48;;
7255;SDS011;3669;49.200;9.242;2023-05-16T09:08:04;26.58;;;24.83;;
7255;SDS011;3669;49.200;9.242;2023-05-16T09:10:39;34.80;;;32.60;;
7255;SDS011;3669;49.200;9.242;2023-05-16T09:13:17;13.73;;;12.38;;
7255;SDS011;3669;49.200;9.242;2023-05-16T09:15:44;36.33;;;33.90;;
7255;SDS011;3669;49.200;9.242;2023-05-16T09:18:11;38.65;;;36.15;;
7255;SDS011;3669;49.200;9.242;2023-05-16T09:20:45;32.00;;;30.00;;
7255;SDS011;3669;49.200;9.242;2023-05-16T09:23:14;43.13;;;40.47;;
7255;SDS011;3669;49.200;9.242;2023-05-16T09:25:41;34.75;;;32.53;;
7255;SDS011;3669;49.200;9.242;2023-05-16T09:28:09;26.05;;;24.23;;
7255;SDS011;3669;49.200;9.242;2023-05-16T09:30:36;18.63;;;17.13;;
7255;SDS011;3669;49.200;9.242;2023-05-16T09:33:05;13.75;;;12.45;;
7255;SDS011;3669;49.200;9.242;2023-05-16T09:35:32;13.75;;;12.32;;
7255;SDS011;3669;49.200;9.242;2023-05-16T09:37:59;13.60;;;12.40;;
7255;SDS011;3669;49.200;9.242;2023-05-16T09:40:27;13.48;;;12.18;;
7255;SDS011;3669;49.200;9.242;2023-05-16T09:43:04;14.95;;;13.45;;
7255;SDS011;3669;49.200;9.242;2023-05-16T09:45:32;13.90;;;12.55;;
7255;SDS011;3669;49.200;9.242;2023-05-16T09:48:06;14.98;;;13.40;;
7255;SDS011;3669;49.200;9.242;2023-05-16T09:50:34;13.57;;;12.27;;
7255;SDS011;3669;49.200;9.242;2023-05-16T09:53:02;13.15;;;11.85;;
7255;SDS011;3669;49.200;9.242;2023-05-16T09:55:30;13.70;;;12.40;;
7255;SDS011;3669;49.200;9.242;2023-05-16T09:57:57;13.20;;;12.00;;
7255;SDS011;3669;49.200;9.242;2023-05-16T10:00:31;13.27;;;11.98;;
7255;SDS011;3669;49.200;9.242;2023-05-16T10:02:59;12.30;;;10.77;;
7255;SDS011;3669;49.200;9.242;2023-05-16T10:05:30;12.68;;;11.10;;
7255;SDS011;3669;49.200;9.242;2023-05-16T10:07:58;12.25;;;11.15;;
7255;SDS011;3669;49.200;9.242;2023-05-16T10:10:26;11.50;;;10.40;;
7255;SDS011;3669;49.200;9.242;2023-05-16T10:12:53;13.23;;;11.93;;
7255;SDS011;3669;49.200;9.242;2023-05-16T10:15:23;11.40;;;10.15;;
7255;SDS011;3669;49.200;9.242;2023-05-16T10:17:52;10.93;;;9.82;;
7255;SDS011;3669;49.200;9.242;2023-05-16T10:20:23;10.75;;;9.75;;
7255;SDS011;3669;49.200;9.242;2023-05-16T10:22:52;10.27;;;9.27;;
7255;SDS011;3669;49.200;9.242;2023-05-16T10:25:33;9.43;;;8.63;;
7255;SDS011;3669;49.200;9.242;2023-05-16T10:28:01;8.57;;;7.78;;
7255;SDS011;3669;49.200;9.242;2023-05-16T10:30:29;9.05;;;8.10;;
7255;SDS011;3669;49.200;9.242;2023-05-16T10:32:57;8.57;;;7.85;;
7255;SDS011;3669;49.200;9.242;2023-05-16T10:35:25;8.88;;;8.07;;
7255;SDS011;3669;49.200;9.242;2023-05-16T10:37:53;7.75;;;7.05;;
7255;SDS011;3669;49.200;9.242;2023-05-16T10:40:21;7.70;;;7.00;;
7255;SDS011;3669;49.200;9.242;2023-05-16T10:42:59;7.32;;;6.72;;
7255;SDS011;3669;49.200;9.242;2023-05-16T10:45:27;7.25;;;6.55;;
7255;SDS011;3669;49.200;9.242;2023-05-16T10:47:55;9.00;;;6.25;;
7255;SDS011;3669;49.200;9.242;2023-05-16T10:50:33;6.45;;;5.85;;
7255;SDS011;3669;49.200;9.242;2023-05-16T10:53:22;6.55;;;5.95;;
7255;SDS011;3669;49.200;9.242;2023-05-16T11:04:04;5.35;;;4.85;;
7255;SDS011;3669;49.200;9.242;2023-05-16T11:06:44;5.30;;;4.80;;
7255;SDS011;3669;49.200;9.242;2023-05-16T11:09:23;5.22;;;4.82;;
7255;SDS011;3669;49.200;9.242;2023-05-16T11:14:26;5.15;;;4.75;;
7255;SDS011;3669;49.200;9.242;2023-05-16T11:17:23;5.15;;;4.75;;
7255;SDS011;3669;49.200;9.242;2023-05-16T11:20:01;5.13;;;4.70;;
7255;SDS011;3669;49.200;9.242;2023-05-16T11:22:40;4.50;;;4.20;;
7255;SDS011;3669;49.200;9.242;2023-05-16T11:25:33;4.25;;;3.95;;
7255;SDS011;3669;49.200;9.242;2023-05-16T11:28:40;4.28;;;3.88;;
7255;SDS011;3669;49.200;9.242;2023-05-16T11:31:10;4.53;;;4.13;;
7255;SDS011;3669;49.200;9.242;2023-05-16T11:33:38;4.75;;;4.25;;
7255;SDS011;3669;49.200;9.242;2023-05-16T11:36:23;4.07;;;3.78;;
7255;SDS011;3669;49.200;9.242;2023-05-16T11:38:50;3.75;;;3.45;;
7255;SDS011;3669;49.200;9.242;2023-05-16T11:41:17;4.38;;;3.97;;
7255;SDS011;3669;49.200;9.242;2023-05-16T11:43:46;13.88;;;13.07;;
7255;SDS011;3669;49.200;9.242;2023-05-16T11:46:14;4.70;;;4.18;;
7255;SDS011;3669;49.200;9.242;2023-05-16T11:48:42;3.63;;;3.33;;
7255;SDS011;3669;49.200;9.242;2023-05-16T11:51:11;4.10;;;3.80;;
7255;SDS011;3669;49.200;9.242;2023-05-16T11:53:39;3.80;;;3.50;;
7255;SDS011;3669;49.200;9.242;2023-05-16T11:56:07;3.88;;;3.58;;
7255;SDS011;3669;49.200;9.242;2023-05-16T11:58:35;3.42;;;3.22;;
7255;SDS011;3669;49.200;9.242;2023-05-16T12:01:05;3.58;;;3.28;;
7255;SDS011;3669;49.200;9.242;2023-05-16T12:03:34;3.75;;;3.45;;
7255;SDS011;3669;49.200;9.242;2023-05-16T12:06:03;3.65;;;3.35;;
7255;SDS011;3669;49.200;9.242;2023-05-16T12:08:30;3.28;;;2.97;;
7255;SDS011;3669;49.200;9.242;2023-05-16T12:10:58;3.47;;;3.25;;
7255;SDS011;3669;49.200;9.242;2023-05-16T12:13:26;3.38;;;3.08;;
7255;SDS011;3669;49.200;9.242;2023-05-16T12:15:53;3.63;;;3.33;;
7255;SDS011;3669;49.200;9.242;2023-05-16T12:18:20;3.97;;;3.60;;
7255;SDS011;3669;49.200;9.242;2023-05-16T12:20:48;3.25;;;3.05;;
7255;SDS011;3669;49.200;9.242;2023-05-16T12:23:15;3.33;;;3.08;;
7255;SDS011;3669;49.200;9.242;2023-05-16T12:25:46;3.35;;;3.05;;
7255;SDS011;3669;49.200;9.242;2023-05-16T12:28:14;3.60;;;3.30;;
7255;SDS011;3669;49.200;9.242;2023-05-16T12:30:42;3.30;;;2.90;;
7255;SDS011;3669;49.200;9.242;2023-05-16T12:33:11;3.10;;;2.80;;
7255;SDS011;3669;49.200;9.242;2023-05-16T12:35:39;3.10;;;2.58;;
7255;SDS011;3669;49.200;9.242;2023-05-16T12:38:07;10.68;;;10.02;;
7255;SDS011;3669;49.200;9.242;2023-05-16T12:40:38;19.45;;;18.48;;
7255;SDS011;3669;49.200;9.242;2023-05-16T12:43:13;28.95;;;27.40;;
7255;SDS011;3669;49.200;9.242;2023-05-16T12:45:41;21.05;;;20.05;;
7255;SDS011;3669;49.200;9.242;2023-05-16T12:48:12;24.25;;;23.10;;
7255;SDS011;3669;49.200;9.242;2023-05-16T12:50:39;26.30;;;25.08;;
7255;SDS011;3669;49.200;9.242;2023-05-16T12:53:09;27.55;;;26.27;;
7255;SDS011;3669;49.200;9.242;2023-05-16T12:55:38;23.33;;;22.15;;
7255;SDS011;3669;49.200;9.242;2023-05-16T12:58:06;37.80;;;36.00;;
7255;SDS011;3669;49.200;9.242;2023-05-16T13:00:33;20.23;;;19.27;;
7255;SDS011;3669;49.200;9.242;2023-05-16T13:03:13;6.28;;;5.97;;
7255;SDS011;3669;49.200;9.242;2023-05-16T13:05:41;2.35;;;2.22;;
7255;SDS011;3669;49.200;9.242;2023-05-16T13:08:08;2.03;;;1.92;;
7255;SDS011;3669;49.200;9.242;2023-05-16T13:10:35;3.00;;;2.05;;
7255;SDS011;3669;49.200;9.242;2023-05-16T13:13:03;2.70;;;2.50;;
7255;SDS011;3669;49.200;9.242;2023-05-16T13:15:30;2.47;;;2.28;;
7255;SDS011;3669;49.200;9.242;2023-05-16T13:17:58;2.40;;;2.20;;
7255;SDS011;3669;49.200;9.242;2023-05-16T13:20:25;2.30;;;2.10;;
7255;SDS011;3669;49.200;9.242;2023-05-16T13:22:53;2.20;;;2.00;;
7255;SDS011;3669;49.200;9.242;2023-05-16T13:25:21;2.00;;;1.90;;
7255;SDS011;3669;49.200;9.242;2023-05-16T13:27:48;2.17;;;1.80;;
7255;SDS011;3669;49.200;9.242;2023-05-16T13:30:15;2.60;;;2.40;;
7255;SDS011;3669;49.200;9.242;2023-05-16T13:32:42;2.28;;;2.08;;
7255;SDS011;3669;49.200;9.242;2023-05-16T13:35:09;2.85;;;2.40;;
7255;SDS011;3669;49.200;9.242;2023-05-16T13:37:36;2.00;;;1.90;;
7255;SDS011;3669;49.200;9.242;2023-05-16T13:40:04;3.05;;;2.30;;
7255;SDS011;3669;49.200;9.242;2023-05-16T13:42:36;2.20;;;2.00;;
7255;SDS011;3669;49.200;9.242;2023-05-16T13:45:04;2.78;;;1.85;;
7255;SDS011;3669;49.200;9.242;2023-05-16T13:47:31;2.50;;;2.30;;
7255;SDS011;3669;49.200;9.242;2023-05-16T13:49:59;2.50;;;2.30;;
7255;SDS011;3669;49.200;9.242;2023-05-16T13:52:34;3.28;;;2.30;;
7255;SDS011;3669;49.200;9.242;2023-05-16T13:55:02;2.90;;;2.50;;
7255;SDS011;3669;49.200;9.242;2023-05-16T13:57:29;2.35;;;2.15;;
7255;SDS011;3669;49.200;9.242;2023-05-16T13:59:58;4.13;;;2.25;;
7255;SDS011;3669;49.200;9.242;2023-05-16T14:02:25;3.00;;;2.15;;
7255;SDS011;3669;49.200;9.242;2023-05-16T14:04:52;2.28;;;2.08;;
7255;SDS011;3669;49.200;9.242;2023-05-16T14:07:20;2.45;;;2.20;;
7255;SDS011;3669;49.200;9.242;2023-05-16T14:09:47;3.92;;;2.25;;
7255;SDS011;3669;49.200;9.242;2023-05-16T14:12:14;2.40;;;2.20;;
7255;SDS011;3669;49.200;9.242;2023-05-16T14:14:41;2.33;;;2.03;;
7255;SDS011;3669;49.200;9.242;2023-05-16T14:17:09;2.30;;;2.10;;
7255;SDS011;3669;49.200;9.242;2023-05-16T14:19:36;3.03;;;2.20;;
7255;SDS011;3669;49.200;9.242;2023-05-16T14:22:04;2.85;;;2.33;;
7255;SDS011;3669;49.200;9.242;2023-05-16T14:24:31;2.47;;;2.20;;
7255;SDS011;3669;49.200;9.242;2023-05-16T14:26:58;3.85;;;2.13;;
7255;SDS011;3669;49.200;9.242;2023-05-16T14:29:26;12.32;;;11.55;;
7255;SDS011;3669;49.200;9.242;2023-05-16T14:31:53;2.42;;;2.20;;
7255;SDS011;3669;49.200;9.242;2023-05-16T14:34:20;3.38;;;2.30;;
7255;SDS011;3669;49.200;9.242;2023-05-16T14:36:48;2.05;;;1.77;;
7255;SDS011;3669;49.200;9.242;2023-05-16T14:39:15;8.32;;;7.65;;
7255;SDS011;3669;49.200;9.242;2023-05-16T14:41:42;16.80;;;15.80;;
7255;SDS011;3669;49.200;9.242;2023-05-16T14:44:10;30.20;;;28.73;;
7255;SDS011;3669;49.200;9.242;2023-05-16T14:46:37;24.08;;;22.90;;
7255;SDS011;3669;49.200;9.242;2023-05-16T14:49:05;24.08;;;22.83;;
7255;SDS011;3669;49.200;9.242;2023-05-16T14:51:33;16.55;;;15.70;;
7255;SDS011;3669;49.200;9.242;2023-05-16T14:54:00;3.80;;;3.53;;
7255;SDS011;3669;49.200;9.242;2023-05-16T14:56:27;2.30;;;2.10;;
7255;SDS011;3669;49.200;9.242;2023-05-16T14:58:56;2.35;;;2.10;;
7255;SDS011;3669;49.200;9.242;2023-05-16T15:01:25;2.83;;;2.35;;
7255;SDS011;3669;49.200;9.242;2023-05-16T15:03:52;3.28;;;2.42;;
7255;SDS011;3669;49.200;9.242;2023-05-16T15:06:19;2.42;;;2.22;;
7255;SDS011;3669;49.200;9.242;2023-05-16T15:08:46;3.53;;;2.13;;
7255;SDS011;3669;49.200;9.242;2023-05-16T15:11:13;3.22;;;2.40;;
7255;SDS011;3669;49.200;9.242;2023-05-16T15:13:42;3.90;;;2.40;;
7255;SDS011;3669;49.200;9.242;2023-05-16T15:16:09;4.80;;;2.55;;
7255;SDS011;3669;49.200;9.242;2023-05-16T15:18:37;2.28;;;2.05;;
7255;SDS011;3669;49.200;9.242;2023-05-16T15:21:06;2.50;;;2.08;;
7255;SDS011;3669;49.200;9.242;2023-05-16T15:23:33;3.83;;;2.47;;
7255;SDS011;3669;49.200;9.242;2023-05-16T15:26:01;2.63;;;2.25;;
7255;SDS011;3669;49.200;9.242;2023-05-16T15:28:28;3.78;;;2.30;;
7255;SDS011;3669;49.200;9.242;2023-05-16T15:30:55;2.80;;;2.50;;
7255;SDS011;3669;49.200;9.242;2023-05-16T15:33:23;3.53;;;2.45;;